createdAt,value
2018-08-10T00:00:25.425Z,17.46
2018-08-10T00:02:53.912Z,17.34
2018-08-10T00:05:22.410Z,17.19
2018-08-10T00:07:51.664Z,17.30
2018-08-10T00:10:20.161Z,17.32
2018-08-10T00:12:48.602Z,17.39
2018-08-10T00:15:17.036Z,17.33
2018-08-10T00:17:45.533Z,17.26
2018-08-10T00:20:15.486Z,17.07
2018-08-10T00:22:44.390Z,17.08
2018-08-10T00:25:17.499Z,17.17
2018-08-10T00:27:45.950Z,17.34
2018-08-10T00:30:15.990Z,17.41
2018-08-10T00:32:45.910Z,17.43
2018-08-10T00:35:14.400Z,17.37
2018-08-10T00:37:43.580Z,17.26
2018-08-10T00:40:17.607Z,17.03
2018-08-10T00:42:46.167Z,17.01
2018-08-10T00:45:15.479Z,17.01
2018-08-10T00:47:44.349Z,17.05
2018-08-10T00:50:14.335Z,16.99
2018-08-10T00:52:43.538Z,16.95
2018-08-10T00:55:13.629Z,17.02
2018-08-10T00:57:42.447Z,16.96
2018-08-10T01:00:12.751Z,16.90
2018-08-10T01:02:41.436Z,16.80
2018-08-10T01:05:10.687Z,16.81
2018-08-10T01:07:39.181Z,16.78
2018-08-10T01:10:10.181Z,16.79
2018-08-10T01:12:39.295Z,16.81
2018-08-10T01:15:09.567Z,16.80
2018-08-10T01:17:38.373Z,16.74
2018-08-10T01:20:09.871Z,16.67
2018-08-10T01:22:42.336Z,16.67
2018-08-10T01:25:11.872Z,16.63
2018-08-10T01:27:45.615Z,16.58
2018-08-10T01:30:14.868Z,16.61
2018-08-10T01:32:43.268Z,16.70
2018-08-10T01:35:11.657Z,16.63
2018-08-10T01:37:40.067Z,16.66
2018-08-10T01:40:09.664Z,16.61
2018-08-10T01:42:38.131Z,16.46
2018-08-10T01:45:07.444Z,16.38
2018-08-10T01:47:36.671Z,16.32
2018-08-10T01:50:05.856Z,16.34
2018-08-10T01:52:34.341Z,16.37
2018-08-10T01:55:02.913Z,16.27
2018-08-10T01:57:31.457Z,16.35
2018-08-10T01:59:59.911Z,16.37
2018-08-10T02:02:28.517Z,16.31
2018-08-10T02:04:57.008Z,16.36
2018-08-10T02:07:25.467Z,16.42
2018-08-10T02:09:53.916Z,16.39
2018-08-10T02:12:22.390Z,16.44
2018-08-10T02:14:50.932Z,16.39
2018-08-10T02:17:19.388Z,16.42
2018-08-10T02:19:47.831Z,16.29
2018-08-10T02:22:16.240Z,16.32
2018-08-10T02:24:44.817Z,16.35
2018-08-10T02:27:13.234Z,16.33
2018-08-10T02:29:41.619Z,16.28
2018-08-10T02:32:10.330Z,16.31
2018-08-10T02:34:38.692Z,16.23
2018-08-10T02:37:07.240Z,16.20
2018-08-10T02:39:35.637Z,16.28
2018-08-10T02:42:04.075Z,16.31
2018-08-10T02:44:32.520Z,16.32
2018-08-10T02:47:00.959Z,16.19
2018-08-10T02:49:29.397Z,16.28
2018-08-10T02:51:57.929Z,16.31
2018-08-10T02:54:26.331Z,16.32
2018-08-10T02:56:54.847Z,16.32
2018-08-10T02:59:23.277Z,16.34
2018-08-10T03:01:51.667Z,16.34
2018-08-10T03:04:20.557Z,16.32
2018-08-10T03:06:49.100Z,16.29
2018-08-10T03:09:17.488Z,16.29
2018-08-10T03:11:45.928Z,16.32
2018-08-10T03:14:14.321Z,16.39
2018-08-10T03:16:42.739Z,16.36
2018-08-10T03:19:11.189Z,16.36
2018-08-10T03:21:39.615Z,16.40
2018-08-10T03:24:08.085Z,16.37
2018-08-10T03:26:36.570Z,16.41
2018-08-10T03:29:05.072Z,16.41
2018-08-10T03:31:33.469Z,16.38
2018-08-10T03:34:01.901Z,16.38
2018-08-10T03:36:30.332Z,16.38
2018-08-10T03:38:58.733Z,16.27
2018-08-10T03:41:27.157Z,16.30
2018-08-10T03:43:55.604Z,16.21
2018-08-10T03:46:24.987Z,16.25
2018-08-10T03:48:53.384Z,16.23
2018-08-10T03:51:21.795Z,16.20
2018-08-10T03:53:50.228Z,16.14
2018-08-10T03:56:18.696Z,16.13
2018-08-10T03:58:47.089Z,16.16
2018-08-10T04:01:15.544Z,16.10
2018-08-10T04:03:44.013Z,16.10
2018-08-10T04:06:12.472Z,16.08
2018-08-10T04:08:40.971Z,16.06
2018-08-10T04:11:09.446Z,16.06
2018-08-10T04:13:37.900Z,16.05
2018-08-10T04:16:06.458Z,16.03
2018-08-10T04:18:35.150Z,16.06
2018-08-10T04:21:03.807Z,16.03
2018-08-10T04:23:32.243Z,15.98
2018-08-10T04:26:00.998Z,16.00
2018-08-10T04:28:29.456Z,16.04
2018-08-10T04:30:58.031Z,16.07
2018-08-10T04:33:26.652Z,16.01
2018-08-10T04:35:56.150Z,15.99
2018-08-10T04:38:24.620Z,15.98
2018-08-10T04:40:53.057Z,15.97
2018-08-10T04:43:21.496Z,15.93
2018-08-10T04:45:49.921Z,15.94
2018-08-10T04:48:18.381Z,15.89
2018-08-10T04:50:46.802Z,15.92
2018-08-10T04:53:15.272Z,15.95
2018-08-10T04:55:43.718Z,15.99
2018-08-10T04:58:12.227Z,16.00
2018-08-10T05:00:40.648Z,16.04
2018-08-10T05:03:09.133Z,16.07
2018-08-10T05:05:37.605Z,16.05
2018-08-10T05:08:06.061Z,16.04
2018-08-10T05:10:34.550Z,16.04
2018-08-10T05:13:03.016Z,16.05
2018-08-10T05:15:31.525Z,16.05
2018-08-10T05:17:59.972Z,16.06
2018-08-10T05:20:28.479Z,16.07
2018-08-10T05:22:56.903Z,16.08
2018-08-10T05:25:25.367Z,16.09
2018-08-10T05:27:53.802Z,16.10
2018-08-10T05:30:22.180Z,16.10
2018-08-10T05:32:50.589Z,16.10
2018-08-10T05:35:18.989Z,16.09
2018-08-10T05:37:48.011Z,16.09
2018-08-10T05:40:16.508Z,16.11
2018-08-10T05:42:44.942Z,16.12
2018-08-10T05:45:14.336Z,16.16
2018-08-10T05:47:42.721Z,16.21
2018-08-10T05:50:11.544Z,16.22
2018-08-10T05:52:40.119Z,16.23
2018-08-10T05:55:08.847Z,16.29
2018-08-10T05:57:37.413Z,16.36
2018-08-10T06:00:06.718Z,16.40
2018-08-10T06:02:35.117Z,16.42
2018-08-10T06:05:03.670Z,16.48
2018-08-10T06:07:32.073Z,16.53
2018-08-10T06:10:00.483Z,16.55
2018-08-10T06:12:30.023Z,16.60
2018-08-10T06:14:58.513Z,16.67
2018-08-10T06:17:26.998Z,16.71
2018-08-10T06:19:55.560Z,16.78
2018-08-10T06:22:23.922Z,16.85
2018-08-10T06:24:52.419Z,16.96
2018-08-10T06:27:20.859Z,17.08
2018-08-10T06:29:49.918Z,17.14
2018-08-10T06:32:18.295Z,17.17
2018-08-10T06:34:46.696Z,17.26
2018-08-10T06:37:15.103Z,17.26
2018-08-10T06:39:43.538Z,17.25
2018-08-10T06:42:11.995Z,17.22
2018-08-10T06:44:40.512Z,17.18
2018-08-10T06:47:08.886Z,17.15
2018-08-10T06:49:37.279Z,16.97
2018-08-10T06:52:05.793Z,16.92
2018-08-10T06:54:34.292Z,16.88
2018-08-10T06:57:02.785Z,16.80
2018-08-10T06:59:31.189Z,16.84
2018-08-10T07:01:59.595Z,16.90
2018-08-10T07:04:27.988Z,16.99
2018-08-10T07:06:56.408Z,17.03
2018-08-10T07:09:24.806Z,17.04
2018-08-10T07:11:53.220Z,17.05
2018-08-10T07:14:21.640Z,17.07
2018-08-10T07:16:50.052Z,17.03
2018-08-10T07:19:18.502Z,17.08
2018-08-10T07:21:46.963Z,17.10
2018-08-10T07:24:15.408Z,17.02
2018-08-10T07:26:43.859Z,17.06
2018-08-10T07:29:12.284Z,16.98
2018-08-10T07:31:40.731Z,17.07
2018-08-10T07:34:09.188Z,17.20
2018-08-10T07:36:37.604Z,17.29
2018-08-10T07:39:09.180Z,17.42
2018-08-10T07:41:37.634Z,17.50
2018-08-10T07:44:06.355Z,17.51
2018-08-10T07:46:34.803Z,17.57
2018-08-10T07:49:03.231Z,17.60
2018-08-10T07:51:31.727Z,17.65
2018-08-10T07:54:00.212Z,17.67
2018-08-10T07:56:28.958Z,17.69
2018-08-10T07:58:57.435Z,17.62
2018-08-10T08:01:25.881Z,17.66
2018-08-10T08:03:54.983Z,17.60
2018-08-10T08:06:23.741Z,17.56
2018-08-10T08:08:52.188Z,17.66
2018-08-10T08:11:20.640Z,17.73
2018-08-10T08:13:49.235Z,17.80
2018-08-10T08:16:17.568Z,17.87
2018-08-10T08:18:47.062Z,17.89
2018-08-10T08:21:16.256Z,17.92
2018-08-10T08:23:44.693Z,17.94
2018-08-10T08:26:13.182Z,17.90
2018-08-10T08:28:41.674Z,17.89
2018-08-10T08:31:10.129Z,17.93
2018-08-10T08:33:49.652Z,17.94
2018-08-10T08:36:18.145Z,17.71
2018-08-10T08:40:14.932Z,17.92
2018-08-10T08:42:44.810Z,18.01
2018-08-10T08:46:16.887Z,18.02
2018-08-10T08:48:47.157Z,17.95
2018-08-10T08:51:17.240Z,17.95
2018-08-10T08:53:45.707Z,17.99
2018-08-10T08:56:17.465Z,18.02
2018-08-10T08:58:47.322Z,18.08
2018-08-10T09:01:16.357Z,18.14
2018-08-10T09:04:37.000Z,18.16
2018-08-10T09:07:05.452Z,18.19
2018-08-10T09:09:39.468Z,18.14
2018-08-10T09:12:07.924Z,18.21
2018-08-10T09:14:41.811Z,18.33
2018-08-10T09:17:10.930Z,18.55
2018-08-10T09:19:40.382Z,18.62
2018-08-10T09:22:08.964Z,18.65
2018-08-10T09:24:37.431Z,18.63
2018-08-10T09:27:06.005Z,18.69
2018-08-10T09:29:35.027Z,18.74
2018-08-10T09:32:03.851Z,18.82
2018-08-10T09:34:32.368Z,18.92
2018-08-10T09:37:01.372Z,18.85
2018-08-10T09:39:30.014Z,18.66
2018-08-10T09:42:00.031Z,18.49
2018-08-10T09:44:28.843Z,18.41
2018-08-10T09:46:57.296Z,18.37
2018-08-10T09:49:27.104Z,18.40
2018-08-10T09:51:55.572Z,18.46
2018-08-10T09:54:23.983Z,18.65
2018-08-10T09:56:52.471Z,18.80
2018-08-10T09:59:20.925Z,18.88
2018-08-10T10:01:54.665Z,18.97
2018-08-10T10:04:23.068Z,18.94
2018-08-10T10:06:51.540Z,18.87
2018-08-10T10:09:19.918Z,18.82
2018-08-10T10:11:48.932Z,18.82
2018-08-10T10:14:17.352Z,18.91
2018-08-10T10:16:45.833Z,18.96
2018-08-10T10:19:14.326Z,19.12
2018-08-10T10:21:42.785Z,19.27
2018-08-10T10:24:11.230Z,19.35
2018-08-10T10:26:40.028Z,19.41
2018-08-10T10:29:08.534Z,19.62
2018-08-10T10:31:36.988Z,19.75
2018-08-10T10:34:05.529Z,19.81
2018-08-10T10:36:33.940Z,19.85
2018-08-10T10:39:02.460Z,19.94
2018-08-10T10:41:30.990Z,19.94
2018-08-10T10:43:59.344Z,19.97
2018-08-10T10:46:27.761Z,20.03
2018-08-10T10:48:56.187Z,20.09
2018-08-10T10:51:24.634Z,20.04
2018-08-10T10:53:53.052Z,19.97
2018-08-10T10:56:21.554Z,19.97
2018-08-10T10:58:49.955Z,19.85
2018-08-10T11:01:18.341Z,19.75
2018-08-10T11:03:46.784Z,19.80
2018-08-10T11:06:15.255Z,19.90
2018-08-10T11:08:43.730Z,20.00
2018-08-10T11:11:12.177Z,20.05
2018-08-10T11:13:40.664Z,20.05
2018-08-10T11:16:09.162Z,20.16
2018-08-10T11:18:37.594Z,20.03
2018-08-10T11:21:07.037Z,19.95
2018-08-10T11:23:35.453Z,19.85
2018-08-10T11:26:04.041Z,19.88
2018-08-10T11:28:32.417Z,19.86
2018-08-10T11:31:00.831Z,19.91
2018-08-10T11:33:29.288Z,20.07
2018-08-10T11:35:57.695Z,20.29
2018-08-10T11:38:26.193Z,20.49
2018-08-10T11:40:54.667Z,20.53
2018-08-10T11:43:23.131Z,20.57
2018-08-10T11:45:51.562Z,20.60
2018-08-10T11:48:20.076Z,20.42
2018-08-10T11:50:48.511Z,20.28
2018-08-10T11:53:16.971Z,20.30
2018-08-10T11:55:45.428Z,20.32
2018-08-10T11:58:13.935Z,20.38
2018-08-10T12:00:42.456Z,20.47
2018-08-10T12:03:10.916Z,20.49
2018-08-10T12:05:39.351Z,20.55
2018-08-10T12:08:07.801Z,20.58
2018-08-10T12:10:36.222Z,20.54
2018-08-10T12:13:04.708Z,20.60
2018-08-10T12:15:33.149Z,20.62
2018-08-10T12:18:01.608Z,20.44
2018-08-10T12:20:30.077Z,20.60
2018-08-10T12:22:58.499Z,20.60
2018-08-10T12:25:27.010Z,21.09
2018-08-10T12:27:55.424Z,21.79
2018-08-10T12:30:23.957Z,21.75
2018-08-10T12:32:52.548Z,21.39
2018-08-10T12:35:20.997Z,21.96
2018-08-10T12:37:49.434Z,22.08
2018-08-10T12:40:17.856Z,22.54
2018-08-10T12:42:46.348Z,22.36
2018-08-10T12:45:14.819Z,21.78
2018-08-10T12:47:43.374Z,21.61
2018-08-10T12:50:11.758Z,22.23
2018-08-10T12:52:40.360Z,23.03
2018-08-10T12:55:09.074Z,22.54
2018-08-10T12:57:38.208Z,21.81
2018-08-10T13:00:09.193Z,22.14
2018-08-10T13:02:37.625Z,22.72
2018-08-10T13:05:06.995Z,21.99
2018-08-10T13:07:35.523Z,22.38
2018-08-10T13:10:04.737Z,22.09
2018-08-10T13:12:33.305Z,21.73
2018-08-10T13:15:01.691Z,22.72
2018-08-10T13:17:30.173Z,23.35
2018-08-10T13:19:58.565Z,23.69
2018-08-10T13:22:27.092Z,23.20
2018-08-10T13:24:55.503Z,22.79
2018-08-10T13:27:23.996Z,23.13
2018-08-10T13:29:52.473Z,23.00
2018-08-10T13:32:20.934Z,23.52
2018-08-10T13:34:49.761Z,23.88
2018-08-10T13:37:18.252Z,24.09
2018-08-10T13:39:46.723Z,24.08
2018-08-10T13:42:15.228Z,24.44
2018-08-10T13:44:43.627Z,24.72
2018-08-10T13:47:12.226Z,24.40
2018-08-10T13:49:40.704Z,24.06
2018-08-10T13:52:09.205Z,24.03
2018-08-10T13:54:37.805Z,24.12
2018-08-10T13:57:06.265Z,23.97
2018-08-10T13:59:34.854Z,23.72
2018-08-10T14:02:03.633Z,23.76
2018-08-10T14:04:32.243Z,23.96
2018-08-10T14:07:00.711Z,23.89
2018-08-10T14:09:29.161Z,24.01
2018-08-10T14:11:57.660Z,24.23
2018-08-10T14:14:26.136Z,24.47
2018-08-10T14:16:54.655Z,24.38
2018-08-10T14:19:23.097Z,24.16
2018-08-10T14:21:51.589Z,24.17
2018-08-10T14:24:20.119Z,24.19
2018-08-10T14:26:48.611Z,24.17
2018-08-10T14:29:17.114Z,23.94
2018-08-10T14:31:45.532Z,23.89
2018-08-10T14:34:13.947Z,23.93
2018-08-10T14:36:42.433Z,24.06
2018-08-10T14:39:12.302Z,24.12
2018-08-10T14:41:41.133Z,23.94
2018-08-10T14:44:10.185Z,23.94
2018-08-10T14:46:38.680Z,24.16
2018-08-10T14:49:08.006Z,24.26
2018-08-10T14:51:36.536Z,23.97
2018-08-10T14:54:05.224Z,23.86
2018-08-10T14:56:33.744Z,23.90
2018-08-10T14:59:02.196Z,23.53
2018-08-10T15:01:30.822Z,23.28
2018-08-10T15:03:59.337Z,22.90
2018-08-10T15:06:27.833Z,23.13
2018-08-10T15:08:56.329Z,23.49
2018-08-10T15:11:24.849Z,23.50
2018-08-10T15:13:53.291Z,23.70
2018-08-10T15:16:21.819Z,23.66
2018-08-10T15:18:50.295Z,23.53
2018-08-10T15:21:18.793Z,23.75
2018-08-10T15:23:47.331Z,23.81
2018-08-10T15:26:16.384Z,23.48
2018-08-10T15:28:44.831Z,23.69
2018-08-10T15:31:13.270Z,23.67
2018-08-10T15:33:41.701Z,23.82
2018-08-10T15:36:10.200Z,23.61
2018-08-10T15:38:38.781Z,23.47
2018-08-10T15:41:09.086Z,23.65
2018-08-10T15:43:37.584Z,23.63
2018-08-10T15:46:05.980Z,23.50
2018-08-10T15:48:34.452Z,23.76
2018-08-10T15:51:02.940Z,23.78
2018-08-10T15:53:31.426Z,23.99
2018-08-10T15:55:59.987Z,24.21
2018-08-10T15:58:28.359Z,24.17
2018-08-10T16:00:56.854Z,23.89
2018-08-10T16:03:25.372Z,23.35
2018-08-10T16:05:54.080Z,23.30
2018-08-10T16:08:22.571Z,23.47
2018-08-10T16:10:51.000Z,23.69
2018-08-10T16:13:19.481Z,23.95
2018-08-10T16:15:47.916Z,23.99
2018-08-10T16:18:16.344Z,23.64
2018-08-10T16:20:44.817Z,23.42
2018-08-10T16:23:13.241Z,23.65
2018-08-10T16:25:41.657Z,23.89
2018-08-10T16:28:10.240Z,23.87
2018-08-10T16:30:38.652Z,23.76
2018-08-10T16:33:07.133Z,23.94
2018-08-10T16:35:36.487Z,24.13
2018-08-10T16:38:04.890Z,24.12
2018-08-10T16:40:33.360Z,24.29
2018-08-10T16:43:01.773Z,24.22
2018-08-10T16:45:30.318Z,24.26
2018-08-10T16:47:58.785Z,24.14
2018-08-10T16:50:27.225Z,24.04
2018-08-10T16:52:55.743Z,24.00
2018-08-10T16:55:24.211Z,23.85
2018-08-10T16:57:52.620Z,24.01
2018-08-10T17:00:21.891Z,24.00
2018-08-10T17:02:50.413Z,23.95
2018-08-10T17:05:18.956Z,24.10
2018-08-10T17:07:47.341Z,24.25
2018-08-10T17:10:15.736Z,24.17
2018-08-10T17:12:45.225Z,24.03
2018-08-10T17:15:15.388Z,24.07
2018-08-10T17:17:44.652Z,23.97
2018-08-10T17:20:13.570Z,23.35
2018-08-10T17:22:42.736Z,23.04
2018-08-10T17:25:12.628Z,23.00
2018-08-10T17:27:41.071Z,23.06
2018-08-10T17:30:11.910Z,23.06
2018-08-10T17:32:40.524Z,23.10
2018-08-10T17:35:10.699Z,23.10
2018-08-10T17:37:39.302Z,22.95
2018-08-10T17:40:08.598Z,22.89
2018-08-10T17:42:37.393Z,22.87
2018-08-10T17:45:08.564Z,22.94
2018-08-10T17:47:37.040Z,22.92
2018-08-10T17:50:11.005Z,22.92
2018-08-10T17:52:42.107Z,22.73
2018-08-10T17:55:12.001Z,22.65
2018-08-10T17:57:41.253Z,22.45
2018-08-10T18:00:13.500Z,22.37
2018-08-10T18:02:42.020Z,22.29
2018-08-10T18:05:12.543Z,22.26
2018-08-10T18:07:41.320Z,22.19
2018-08-10T18:10:10.794Z,22.18
2018-08-10T18:12:40.308Z,22.15
2018-08-10T18:15:11.124Z,22.20
2018-08-10T18:17:40.447Z,22.26
2018-08-10T18:20:11.800Z,22.27
2018-08-10T18:22:40.367Z,22.27
2018-08-10T18:25:10.497Z,22.18
2018-08-10T18:27:39.433Z,22.16
2018-08-10T18:30:11.005Z,22.15
2018-08-10T18:32:39.853Z,22.13
2018-08-10T18:35:09.332Z,22.10
2018-08-10T18:37:38.433Z,22.06
2018-08-10T18:40:08.004Z,22.02
2018-08-10T18:42:36.459Z,21.95
2018-08-10T18:45:05.841Z,21.83
2018-08-10T18:47:34.366Z,21.82
2018-08-10T18:50:03.013Z,21.75
2018-08-10T18:52:31.483Z,21.72
2018-08-10T18:54:59.925Z,21.71
2018-08-10T18:57:28.347Z,21.70
2018-08-10T18:59:56.878Z,21.70
2018-08-10T19:02:25.390Z,21.68
2018-08-10T19:04:53.979Z,21.66
2018-08-10T19:07:22.443Z,21.60
2018-08-10T19:09:50.928Z,21.59
2018-08-10T19:12:20.199Z,21.52
2018-08-10T19:14:48.648Z,21.48
2018-08-10T19:17:17.185Z,21.44
2018-08-10T19:19:45.699Z,21.32
2018-08-10T19:22:14.280Z,21.31
2018-08-10T19:24:42.753Z,21.29
2018-08-10T19:27:11.197Z,21.24
2018-08-10T19:29:39.661Z,21.23
2018-08-10T19:32:08.124Z,21.23
2018-08-10T19:34:38.752Z,21.22
2018-08-10T19:37:07.214Z,21.19
2018-08-10T19:39:35.758Z,21.13
2018-08-10T19:42:04.893Z,21.09
2018-08-10T19:44:33.331Z,21.05
2018-08-10T19:47:01.771Z,20.99
2018-08-10T19:49:30.243Z,20.99
2018-08-10T19:51:58.753Z,20.94
2018-08-10T19:54:27.180Z,20.95
2018-08-10T19:56:55.626Z,20.94
2018-08-10T19:59:24.159Z,20.95
2018-08-10T20:01:52.582Z,20.91
2018-08-10T20:04:21.081Z,20.87
2018-08-10T20:06:49.516Z,20.84
2018-08-10T20:09:18.000Z,20.80
2018-08-10T20:11:46.438Z,20.77
2018-08-10T20:14:14.928Z,20.72
2018-08-10T20:16:43.414Z,20.69
2018-08-10T20:19:11.893Z,20.66
2018-08-10T20:21:40.444Z,20.60
2018-08-10T20:24:08.896Z,20.58
2018-08-10T20:26:37.424Z,20.56
2018-08-10T20:29:06.079Z,20.54
2018-08-10T20:31:34.474Z,20.54
2018-08-10T20:34:02.887Z,20.54
2018-08-10T20:36:31.291Z,20.50
2018-08-10T20:38:59.715Z,20.48
2018-08-10T20:41:28.229Z,20.41
2018-08-10T20:43:56.660Z,20.39
2018-08-10T20:46:25.046Z,20.34
2018-08-10T20:48:53.511Z,20.29
2018-08-10T20:51:21.988Z,20.24
2018-08-10T20:53:50.420Z,20.27
2018-08-10T20:56:18.913Z,20.26
2018-08-10T20:58:47.356Z,20.25
2018-08-10T21:01:15.828Z,20.26
2018-08-10T21:03:44.292Z,20.27
2018-08-10T21:06:12.732Z,20.20
2018-08-10T21:08:41.259Z,20.22
2018-08-10T21:11:09.757Z,20.22
2018-08-10T21:13:38.164Z,20.16
2018-08-10T21:16:06.798Z,20.13
2018-08-10T21:18:35.250Z,20.10
2018-08-10T21:21:03.666Z,20.05
2018-08-10T21:23:32.153Z,20.03
2018-08-10T21:26:00.575Z,20.00
2018-08-10T21:28:29.871Z,19.94
2018-08-10T21:30:58.308Z,19.93
2018-08-10T21:33:26.761Z,19.93
2018-08-10T21:35:55.200Z,19.88
2018-08-10T21:38:23.670Z,19.88
2018-08-10T21:40:52.121Z,19.86
2018-08-10T21:43:20.602Z,19.82
2018-08-10T21:45:49.115Z,19.83
2018-08-10T21:48:17.611Z,19.82
2018-08-10T21:50:46.047Z,19.79
2018-08-10T21:53:14.520Z,19.77
2018-08-10T21:55:43.007Z,19.76
2018-08-10T21:58:11.453Z,19.77
2018-08-10T22:00:51.265Z,19.78
2018-08-10T22:03:21.252Z,19.76
2018-08-10T22:05:49.942Z,19.79
2018-08-10T22:08:19.479Z,19.79
2018-08-10T22:10:48.055Z,19.76
2018-08-10T22:13:21.796Z,19.75
2018-08-10T22:15:55.410Z,19.74
2018-08-10T22:18:29.032Z,19.70
2018-08-10T22:20:57.904Z,19.70
2018-08-10T22:23:27.459Z,19.69
2018-08-10T22:25:56.272Z,19.66
2018-08-10T22:28:24.765Z,19.65
2018-08-10T22:30:53.256Z,19.66
2018-08-10T22:33:21.811Z,19.66
2018-08-10T22:35:50.256Z,19.64
2018-08-10T22:38:18.645Z,19.60
2018-08-10T22:40:47.080Z,19.54
2018-08-10T22:43:15.504Z,19.55
2018-08-10T22:45:44.207Z,19.53
2018-08-10T22:48:12.723Z,19.52
2018-08-10T22:50:41.293Z,19.51
2018-08-10T22:53:09.831Z,19.46
2018-08-10T22:55:38.823Z,19.45
2018-08-10T22:58:07.233Z,19.42
2018-08-10T23:00:35.632Z,19.43
2018-08-10T23:03:04.162Z,19.42
2018-08-10T23:05:32.552Z,19.40
2018-08-10T23:08:01.130Z,19.37
2018-08-10T23:10:29.662Z,19.39
2018-08-10T23:12:58.100Z,19.37
2018-08-10T23:15:26.616Z,19.35
2018-08-10T23:17:55.010Z,19.33
2018-08-10T23:20:23.628Z,19.32
2018-08-10T23:22:52.034Z,19.31
2018-08-10T23:25:20.441Z,19.27
2018-08-10T23:27:49.837Z,19.21
2018-08-10T23:30:18.391Z,19.23
2018-08-10T23:32:46.828Z,19.20
2018-08-10T23:35:15.269Z,19.24
2018-08-10T23:37:43.807Z,19.24
2018-08-10T23:40:14.607Z,19.23
2018-08-10T23:42:43.493Z,19.24
2018-08-10T23:45:13.746Z,19.26
2018-08-10T23:47:42.845Z,19.28
2018-08-10T23:50:13.330Z,19.25
2018-08-10T23:52:42.101Z,19.23
2018-08-10T23:55:11.027Z,19.19
2018-08-10T23:57:40.639Z,19.12
